createdAt,value
2022-10-31T00:02:27.004Z,16.90
2022-10-31T00:04:57.294Z,17.00
2022-10-31T00:07:27.507Z,16.90
2022-10-31T00:09:57.910Z,16.90
2022-10-31T00:12:28.188Z,16.90
2022-10-31T00:14:58.463Z,16.90
2022-10-31T00:17:31.330Z,16.90
2022-10-31T00:20:01.608Z,16.90
2022-10-31T00:22:31.829Z,16.90
2022-10-31T00:25:02.245Z,16.90
2022-10-31T00:27:32.494Z,16.90
2022-10-31T00:30:02.888Z,16.90
2022-10-31T00:32:35.975Z,16.90
2022-10-31T00:35:07.647Z,16.90
2022-10-31T00:37:37.887Z,16.80
2022-10-31T00:40:09.626Z,16.80
2022-10-31T00:42:39.982Z,16.80
2022-10-31T00:45:11.470Z,16.80
2022-10-31T00:47:44.451Z,16.80
2022-10-31T00:50:14.818Z,16.80
2022-10-31T00:52:45.090Z,16.80
2022-10-31T00:55:15.544Z,16.70
2022-10-31T00:57:46.051Z,16.70
2022-10-31T01:00:16.976Z,16.70
2022-10-31T01:02:50.487Z,16.70
2022-10-31T01:05:21.133Z,16.60
2022-10-31T01:07:51.461Z,16.70
2022-10-31T01:10:22.029Z,16.70
2022-10-31T01:12:53.856Z,16.60
2022-10-31T01:15:27.122Z,16.60
2022-10-31T01:18:00.149Z,16.60
2022-10-31T01:20:32.594Z,16.60
2022-10-31T01:23:04.793Z,16.60
2022-10-31T01:25:35.017Z,16.50
2022-10-31T01:28:05.350Z,16.60
2022-10-31T01:30:36.219Z,16.50
2022-10-31T01:33:09.071Z,16.50
2022-10-31T01:35:39.298Z,16.50
2022-10-31T01:38:09.555Z,16.50
2022-10-31T01:40:39.807Z,16.50
2022-10-31T01:43:16.758Z,16.50
2022-10-31T01:45:50.538Z,16.50
2022-10-31T01:48:27.839Z,16.40
2022-10-31T01:50:59.338Z,16.40
2022-10-31T01:53:29.736Z,16.40
2022-10-31T01:56:00.036Z,16.40
2022-10-31T01:58:33.611Z,16.40
2022-10-31T02:01:07.934Z,16.40
2022-10-31T02:03:41.991Z,16.40
2022-10-31T02:06:16.979Z,16.30
2022-10-31T02:08:48.171Z,16.30
2022-10-31T02:11:19.318Z,16.30
2022-10-31T02:13:51.140Z,16.30
2022-10-31T02:16:22.080Z,16.30
2022-10-31T02:18:55.013Z,16.30
2022-10-31T02:21:32.387Z,16.30
2022-10-31T02:24:41.285Z,16.20
2022-10-31T02:27:21.945Z,16.20
2022-10-31T02:30:13.591Z,16.20
2022-10-31T02:33:13.729Z,16.20
2022-10-31T02:35:54.159Z,16.10
2022-10-31T02:38:33.087Z,16.20
2022-10-31T02:41:13.746Z,16.10
2022-10-31T02:43:59.002Z,16.10
2022-10-31T02:46:38.248Z,16.10
2022-10-31T02:49:20.443Z,16.10
2022-10-31T02:51:51.516Z,16.10
2022-10-31T02:54:23.992Z,16.10
2022-10-31T02:57:01.140Z,16.10
2022-10-31T02:59:32.201Z,15.90
2022-10-31T03:02:24.447Z,16.00
2022-10-31T03:05:30.261Z,16.10
2022-10-31T03:08:10.584Z,16.00
2022-10-31T03:10:46.496Z,16.00
2022-10-31T03:13:28.268Z,15.90
2022-10-31T03:16:04.808Z,16.00
2022-10-31T03:18:38.747Z,15.90
2022-10-31T03:21:14.563Z,15.90
2022-10-31T03:23:51.279Z,15.90
2022-10-31T03:26:24.940Z,15.90
2022-10-31T03:28:58.584Z,15.90
2022-10-31T03:31:33.179Z,15.90
2022-10-31T03:34:05.173Z,15.80
2022-10-31T03:36:39.007Z,15.90
2022-10-31T03:39:15.417Z,15.90
2022-10-31T03:41:51.327Z,15.90
2022-10-31T03:44:24.706Z,15.80
2022-10-31T03:47:03.644Z,15.90
2022-10-31T03:49:35.393Z,15.80
2022-10-31T03:52:16.259Z,15.80
2022-10-31T03:54:50.685Z,15.80
2022-10-31T03:57:26.665Z,15.80
2022-10-31T04:00:03.686Z,15.80
2022-10-31T04:02:38.517Z,15.70
2022-10-31T04:05:11.952Z,15.70
2022-10-31T04:07:47.605Z,15.70
2022-10-31T04:10:22.434Z,15.80
2022-10-31T04:12:56.294Z,15.80
2022-10-31T04:15:31.481Z,15.80
2022-10-31T04:18:04.792Z,15.70
2022-10-31T04:20:36.806Z,15.70
2022-10-31T04:23:12.267Z,15.70
2022-10-31T04:25:46.819Z,15.70
2022-10-31T04:28:17.204Z,15.70
2022-10-31T04:30:47.578Z,15.70
2022-10-31T04:33:17.873Z,15.60
2022-10-31T04:35:50.600Z,15.70
2022-10-31T04:38:22.443Z,15.70
2022-10-31T04:40:56.381Z,15.60
2022-10-31T04:43:50.226Z,15.60
2022-10-31T04:46:20.878Z,15.60
2022-10-31T04:48:51.444Z,15.60
2022-10-31T04:51:21.747Z,15.60
2022-10-31T04:53:52.145Z,15.70
2022-10-31T04:56:45.275Z,15.70
2022-10-31T04:59:20.869Z,15.60
2022-10-31T05:01:55.765Z,15.60
2022-10-31T05:04:42.337Z,15.60
2022-10-31T05:07:12.613Z,15.60
2022-10-31T05:09:42.999Z,15.60
2022-10-31T05:12:18.789Z,15.60
2022-10-31T05:15:09.329Z,15.60
2022-10-31T05:17:59.243Z,15.60
2022-10-31T05:21:08.677Z,15.60
2022-10-31T05:23:45.846Z,15.60
2022-10-31T05:26:18.850Z,15.60
2022-10-31T05:28:51.839Z,15.50
2022-10-31T05:31:22.116Z,15.50
2022-10-31T05:33:54.032Z,15.50
2022-10-31T05:36:24.356Z,15.50
2022-10-31T05:39:07.380Z,15.50
2022-10-31T05:41:42.279Z,15.50
2022-10-31T05:44:21.190Z,15.50
2022-10-31T05:47:01.383Z,15.50
2022-10-31T05:49:50.441Z,15.50
2022-10-31T05:52:39.559Z,15.60
2022-10-31T05:55:22.824Z,15.50
2022-10-31T05:58:11.904Z,15.50
2022-10-31T06:00:47.430Z,15.50
2022-10-31T06:03:19.092Z,15.50
2022-10-31T06:05:54.975Z,15.50
2022-10-31T06:08:28.686Z,15.50
2022-10-31T06:11:00.883Z,15.50
2022-10-31T06:13:53.815Z,15.50
2022-10-31T06:16:32.074Z,15.50
2022-10-31T06:19:12.092Z,15.50
2022-10-31T06:21:42.346Z,15.50
2022-10-31T06:24:12.985Z,15.50
2022-10-31T06:27:08.076Z,15.50
2022-10-31T06:29:38.506Z,15.50
2022-10-31T06:32:16.271Z,15.50
2022-10-31T06:34:49.222Z,15.50
2022-10-31T06:37:20.027Z,15.50
2022-10-31T06:39:53.308Z,15.40
2022-10-31T06:42:23.760Z,15.50
2022-10-31T06:44:54.259Z,15.50
2022-10-31T06:48:17.285Z,15.30
2022-10-31T06:51:11.099Z,15.40
2022-10-31T06:53:41.620Z,15.40
2022-10-31T06:56:14.602Z,15.40
2022-10-31T06:58:49.679Z,15.40
2022-10-31T07:01:24.213Z,15.40
2022-10-31T07:03:57.294Z,15.30
2022-10-31T07:06:28.375Z,15.40
2022-10-31T07:08:58.744Z,15.30
2022-10-31T07:11:30.421Z,15.40
2022-10-31T07:14:02.130Z,15.40
2022-10-31T07:16:32.818Z,15.30
2022-10-31T07:19:06.291Z,15.30
2022-10-31T07:21:37.406Z,15.30
2022-10-31T07:24:08.763Z,15.30
2022-10-31T07:26:48.636Z,15.30
2022-10-31T07:29:19.174Z,15.40
2022-10-31T07:31:50.927Z,15.30
2022-10-31T07:34:30.181Z,15.40
2022-10-31T07:37:26.690Z,15.40
2022-10-31T07:39:58.965Z,15.40
2022-10-31T07:42:29.298Z,15.40
2022-10-31T07:44:59.726Z,15.40
2022-10-31T07:48:08.802Z,15.40
2022-10-31T07:51:00.039Z,15.40
2022-10-31T07:54:02.930Z,15.40
2022-10-31T07:56:35.201Z,15.40
2022-10-31T07:59:05.585Z,15.40
2022-10-31T08:01:36.046Z,15.40
2022-10-31T08:04:26.321Z,15.40
2022-10-31T08:07:18.147Z,15.40
2022-10-31T08:09:55.433Z,15.40
2022-10-31T08:12:29.036Z,15.50
2022-10-31T08:14:59.536Z,15.50
2022-10-31T08:17:30.831Z,15.50
2022-10-31T08:20:03.914Z,15.50
2022-10-31T08:22:47.091Z,15.60
2022-10-31T08:25:18.347Z,15.50
2022-10-31T08:27:53.580Z,15.60
2022-10-31T08:30:26.843Z,15.60
2022-10-31T08:33:19.047Z,15.60
2022-10-31T08:36:08.541Z,15.60
2022-10-31T08:39:01.432Z,15.70
2022-10-31T08:41:33.319Z,15.60
2022-10-31T08:44:04.667Z,15.70
2022-10-31T08:46:36.960Z,15.70
2022-10-31T08:49:07.688Z,15.70
2022-10-31T08:51:38.173Z,15.70
2022-10-31T08:54:11.323Z,15.70
2022-10-31T08:57:00.189Z,15.70
2022-10-31T08:59:44.612Z,15.70
2022-10-31T09:02:40.877Z,15.80
2022-10-31T09:05:12.100Z,15.80
2022-10-31T09:07:42.420Z,15.80
2022-10-31T09:10:15.500Z,15.80
2022-10-31T09:12:47.367Z,15.80
2022-10-31T09:15:36.723Z,15.80
2022-10-31T09:18:23.228Z,15.80
2022-10-31T09:21:03.374Z,15.80
2022-10-31T09:23:35.028Z,15.90
2022-10-31T09:26:08.740Z,15.90
2022-10-31T09:28:46.341Z,15.90
2022-10-31T09:31:18.906Z,15.90
2022-10-31T09:34:03.857Z,15.90
2022-10-31T09:36:40.647Z,16.00
2022-10-31T09:39:21.922Z,16.00
2022-10-31T09:42:27.972Z,16.00
2022-10-31T09:45:12.055Z,16.00
2022-10-31T09:47:55.489Z,16.00
2022-10-31T09:50:55.110Z,15.90
2022-10-31T09:53:55.679Z,16.00
2022-10-31T09:56:30.642Z,16.10
2022-10-31T09:59:05.213Z,16.10
2022-10-31T10:01:52.839Z,16.00
2022-10-31T10:04:38.920Z,16.20
2022-10-31T10:07:26.650Z,16.20
2022-10-31T10:10:20.795Z,16.20
2022-10-31T10:13:21.921Z,16.20
2022-10-31T10:16:13.258Z,16.20
2022-10-31T10:18:54.537Z,16.30
2022-10-31T10:21:33.871Z,16.30
2022-10-31T10:24:15.572Z,16.30
2022-10-31T10:26:53.464Z,16.40
2022-10-31T10:29:37.115Z,16.40
2022-10-31T10:32:14.595Z,16.40
2022-10-31T10:34:51.801Z,16.40
2022-10-31T10:37:30.665Z,16.50
2022-10-31T10:40:10.882Z,16.50
2022-10-31T10:42:53.792Z,16.50
2022-10-31T10:45:36.754Z,16.60
2022-10-31T10:48:14.070Z,16.60
2022-10-31T10:50:52.299Z,16.60
2022-10-31T10:54:00.684Z,16.60
2022-10-31T10:56:44.943Z,16.70
2022-10-31T10:59:20.260Z,16.70
2022-10-31T11:01:53.903Z,16.80
2022-10-31T11:04:34.972Z,17.00
2022-10-31T11:07:09.771Z,17.10
2022-10-31T11:09:41.424Z,17.10
2022-10-31T11:12:14.340Z,17.10
2022-10-31T11:14:50.447Z,17.10
2022-10-31T11:17:29.606Z,17.10
2022-10-31T11:20:09.088Z,17.20
2022-10-31T11:22:42.348Z,17.20
2022-10-31T11:25:25.436Z,17.30
2022-10-31T11:28:04.083Z,17.30
2022-10-31T11:30:39.617Z,17.30
2022-10-31T11:33:09.944Z,17.30
2022-10-31T11:35:44.082Z,17.40
2022-10-31T11:38:22.274Z,17.50
2022-10-31T11:41:02.297Z,17.50
2022-10-31T11:43:32.885Z,17.70
2022-10-31T11:46:03.492Z,17.70
2022-10-31T11:48:33.825Z,17.70
2022-10-31T11:51:04.366Z,17.70
2022-10-31T11:53:38.471Z,17.60
2022-10-31T11:56:19.440Z,17.80
2022-10-31T11:58:59.936Z,17.70
2022-10-31T12:01:32.397Z,17.80
2022-10-31T12:04:10.166Z,17.90
2022-10-31T12:06:42.726Z,18.00
2022-10-31T12:09:24.540Z,18.00
2022-10-31T12:12:17.312Z,18.00
2022-10-31T12:14:59.789Z,18.00
2022-10-31T12:17:37.282Z,18.00
2022-10-31T12:20:20.296Z,18.00
2022-10-31T12:22:58.143Z,18.20
2022-10-31T12:25:43.266Z,18.20
2022-10-31T12:28:41.378Z,18.30
2022-10-31T12:31:29.792Z,18.30
2022-10-31T12:34:07.886Z,18.30
2022-10-31T12:36:48.535Z,18.40
2022-10-31T12:39:29.603Z,18.40
2022-10-31T12:42:12.111Z,18.40
2022-10-31T12:45:05.883Z,18.50
2022-10-31T12:48:00.236Z,18.50
2022-10-31T12:50:41.025Z,18.50
2022-10-31T12:53:25.382Z,18.60
2022-10-31T12:56:04.530Z,18.60
2022-10-31T12:58:41.486Z,18.60
2022-10-31T13:01:16.515Z,18.60
2022-10-31T13:03:52.651Z,18.70
2022-10-31T13:06:26.514Z,18.70
2022-10-31T13:09:00.596Z,18.60
2022-10-31T13:11:35.002Z,18.60
2022-10-31T13:14:11.348Z,18.60
2022-10-31T13:16:45.311Z,18.60
2022-10-31T13:19:21.209Z,18.70
2022-10-31T13:21:59.256Z,18.70
2022-10-31T13:24:38.406Z,18.70
2022-10-31T13:27:17.971Z,18.70
2022-10-31T13:29:59.872Z,18.90
2022-10-31T13:32:34.327Z,18.90
2022-10-31T13:35:05.079Z,19.00
2022-10-31T13:37:42.163Z,19.00
2022-10-31T13:40:23.851Z,19.00
2022-10-31T13:43:01.693Z,19.00
2022-10-31T13:45:34.738Z,19.00
2022-10-31T13:48:22.085Z,19.10
2022-10-31T13:51:03.093Z,19.10
2022-10-31T13:53:43.287Z,19.10
2022-10-31T13:56:26.296Z,19.10
2022-10-31T13:59:20.819Z,19.10
2022-10-31T14:01:57.228Z,19.10
2022-10-31T14:04:30.612Z,19.10
2022-10-31T14:07:09.808Z,19.00
2022-10-31T14:09:42.791Z,19.10
2022-10-31T14:12:30.192Z,19.00
2022-10-31T14:15:04.506Z,19.00
2022-10-31T14:17:48.865Z,19.00
2022-10-31T14:20:43.368Z,18.90
2022-10-31T14:23:35.976Z,18.90
2022-10-31T14:26:23.261Z,18.90
2022-10-31T14:28:54.640Z,18.90
2022-10-31T14:31:36.934Z,18.90
2022-10-31T14:34:24.132Z,18.90
2022-10-31T14:37:20.374Z,18.90
2022-10-31T14:40:09.946Z,18.80
2022-10-31T14:42:57.012Z,18.90
2022-10-31T14:45:36.070Z,18.90
2022-10-31T14:48:19.927Z,18.80
2022-10-31T14:50:55.173Z,18.90
2022-10-31T14:53:29.823Z,18.80
2022-10-31T14:56:05.795Z,18.80
2022-10-31T14:58:42.271Z,18.70
2022-10-31T15:01:23.284Z,18.80
2022-10-31T15:04:18.129Z,18.80
2022-10-31T15:06:50.004Z,18.70
2022-10-31T15:09:34.790Z,18.70
2022-10-31T15:12:18.840Z,18.70
2022-10-31T15:14:49.349Z,18.70
2022-10-31T15:17:20.339Z,18.70
2022-10-31T15:19:50.839Z,18.70
2022-10-31T15:22:27.344Z,18.70
2022-10-31T15:24:58.185Z,18.60
2022-10-31T15:27:30.137Z,18.60
2022-10-31T15:30:00.985Z,18.60
2022-10-31T15:32:33.161Z,18.60
2022-10-31T15:35:03.876Z,18.60
2022-10-31T15:37:36.711Z,18.50
2022-10-31T15:40:19.750Z,18.50
2022-10-31T15:42:53.982Z,18.50
2022-10-31T15:45:28.101Z,18.50
2022-10-31T15:48:01.607Z,18.50
2022-10-31T15:50:35.797Z,18.40
2022-10-31T15:53:17.917Z,18.40
2022-10-31T15:55:53.371Z,18.30
2022-10-31T15:58:23.971Z,18.30
2022-10-31T16:01:05.232Z,18.30
2022-10-31T16:03:37.385Z,18.30
2022-10-31T16:06:09.253Z,18.20
2022-10-31T16:08:52.218Z,18.30
2022-10-31T16:11:28.802Z,18.20
2022-10-31T16:14:03.217Z,18.20
2022-10-31T16:16:36.530Z,18.20
2022-10-31T16:19:09.604Z,18.20
2022-10-31T16:21:43.011Z,18.10
2022-10-31T16:24:23.336Z,18.10
2022-10-31T16:26:55.434Z,18.10
2022-10-31T16:29:36.654Z,18.00
2022-10-31T16:32:07.577Z,18.00
2022-10-31T16:34:37.851Z,18.00
2022-10-31T16:37:08.353Z,18.00
2022-10-31T16:39:41.210Z,18.00
2022-10-31T16:42:12.984Z,17.90
2022-10-31T16:44:43.277Z,17.90
2022-10-31T16:47:17.509Z,17.90
2022-10-31T16:49:50.550Z,17.90
2022-10-31T16:52:21.359Z,17.90
2022-10-31T16:54:55.284Z,17.90
2022-10-31T16:57:31.097Z,17.90
2022-10-31T17:00:03.441Z,17.90
2022-10-31T17:02:34.055Z,17.90
2022-10-31T17:05:04.391Z,17.90
2022-10-31T17:07:34.675Z,17.90
2022-10-31T17:10:08.426Z,17.90
2022-10-31T17:12:39.693Z,17.90
2022-10-31T17:15:14.263Z,17.90
2022-10-31T17:17:44.752Z,17.90
2022-10-31T17:20:24.859Z,17.90
2022-10-31T17:22:55.568Z,17.90
2022-10-31T17:25:30.362Z,17.80
2022-10-31T17:28:01.380Z,17.90
2022-10-31T17:30:31.942Z,17.90
2022-10-31T17:33:02.705Z,17.90
2022-10-31T17:35:33.205Z,17.80
2022-10-31T17:38:03.776Z,17.80
2022-10-31T17:40:37.127Z,17.90
2022-10-31T17:43:07.667Z,17.90
2022-10-31T17:45:37.972Z,17.90
2022-10-31T17:48:09.016Z,17.90
2022-10-31T17:50:39.683Z,17.90
2022-10-31T17:53:10.049Z,17.90
2022-10-31T17:55:42.895Z,17.90
2022-10-31T17:58:14.076Z,17.90
2022-10-31T18:00:47.312Z,17.80
2022-10-31T18:03:21.333Z,17.80
2022-10-31T18:05:59.365Z,17.80
2022-10-31T18:08:30.028Z,17.80
2022-10-31T18:11:03.570Z,17.80
2022-10-31T18:13:34.062Z,17.80
2022-10-31T18:16:04.628Z,17.80
2022-10-31T18:18:34.865Z,17.70
2022-10-31T18:21:05.175Z,17.70
2022-10-31T18:23:35.635Z,17.80
2022-10-31T18:26:08.680Z,17.80
2022-10-31T18:28:40.304Z,17.70
2022-10-31T18:31:10.553Z,17.70
2022-10-31T18:33:42.682Z,17.70
2022-10-31T18:36:14.026Z,17.70
2022-10-31T18:38:46.374Z,17.70
2022-10-31T18:41:19.238Z,17.70
2022-10-31T18:43:49.630Z,17.70
2022-10-31T18:46:21.350Z,17.70
2022-10-31T18:48:51.763Z,17.70
2022-10-31T18:51:22.263Z,17.70
2022-10-31T18:53:56.614Z,17.70
2022-10-31T18:56:31.726Z,17.70
2022-10-31T18:59:03.837Z,17.70
2022-10-31T19:01:34.354Z,17.70
2022-10-31T19:04:04.790Z,17.70
2022-10-31T19:06:35.140Z,17.70
2022-10-31T19:09:09.362Z,17.70
2022-10-31T19:11:42.712Z,17.80
2022-10-31T19:14:15.416Z,17.80
2022-10-31T19:16:45.857Z,17.70
2022-10-31T19:19:16.316Z,17.60
2022-10-31T19:21:46.600Z,17.70
2022-10-31T19:24:17.023Z,17.70
2022-10-31T19:26:49.873Z,17.70
2022-10-31T19:29:20.536Z,17.70
2022-10-31T19:31:51.110Z,17.70
2022-10-31T19:34:21.517Z,17.80
2022-10-31T19:36:52.293Z,17.80
2022-10-31T19:39:22.634Z,17.70
2022-10-31T19:41:55.510Z,17.80
2022-10-31T19:44:26.003Z,17.70
2022-10-31T19:46:56.304Z,17.80
2022-10-31T19:49:26.661Z,17.70
2022-10-31T19:51:56.893Z,17.70
2022-10-31T19:54:27.535Z,17.70
2022-10-31T19:57:00.404Z,17.70
2022-10-31T19:59:33.918Z,17.70
2022-10-31T20:02:06.941Z,17.70
2022-10-31T20:04:37.431Z,17.70
2022-10-31T20:07:07.713Z,17.70
2022-10-31T20:09:38.121Z,17.70
2022-10-31T20:12:11.354Z,17.70
2022-10-31T20:14:42.148Z,17.70
2022-10-31T20:17:12.547Z,17.70
2022-10-31T20:19:43.397Z,17.70
2022-10-31T20:22:14.658Z,17.70
2022-10-31T20:24:44.904Z,17.70
2022-10-31T20:27:17.780Z,17.70
2022-10-31T20:29:48.193Z,17.80
2022-10-31T20:32:18.544Z,17.80
2022-10-31T20:34:48.870Z,17.80
2022-10-31T20:37:19.128Z,17.80
2022-10-31T20:39:52.613Z,17.90
2022-10-31T20:42:28.602Z,17.90
2022-10-31T20:44:58.914Z,17.90
2022-10-31T20:47:29.251Z,17.90
2022-10-31T20:49:59.691Z,17.90
2022-10-31T20:52:30.001Z,17.90
2022-10-31T20:55:00.310Z,17.90
2022-10-31T20:57:33.179Z,17.90
2022-10-31T21:00:04.189Z,17.90
2022-10-31T21:02:34.523Z,18.00
2022-10-31T21:05:08.512Z,17.90
2022-10-31T21:07:38.906Z,17.90
2022-10-31T21:10:15.158Z,18.00
2022-10-31T21:12:48.665Z,17.90
2022-10-31T21:15:19.129Z,17.90
2022-10-31T21:17:49.407Z,17.90
2022-10-31T21:20:19.974Z,18.00
2022-10-31T21:22:50.627Z,18.00
2022-10-31T21:25:20.969Z,18.00
2022-10-31T21:27:53.816Z,18.00
2022-10-31T21:30:24.245Z,18.00
2022-10-31T21:32:54.445Z,18.00
2022-10-31T21:35:25.281Z,18.10
2022-10-31T21:37:55.612Z,18.10
2022-10-31T21:40:25.930Z,18.00
2022-10-31T21:42:59.251Z,18.10
2022-10-31T21:45:29.871Z,18.10
2022-10-31T21:48:00.206Z,18.10
2022-10-31T21:50:30.766Z,18.10
2022-10-31T21:53:21.438Z,18.10
2022-10-31T21:55:49.114Z,18.20
2022-10-31T21:58:21.880Z,18.10
2022-10-31T22:00:52.268Z,18.10
2022-10-31T22:03:22.439Z,18.20
2022-10-31T22:05:55.708Z,18.20
2022-10-31T22:08:28.405Z,18.20
2022-10-31T22:10:58.639Z,18.20
2022-10-31T22:13:32.700Z,18.20
2022-10-31T22:16:06.967Z,18.20
2022-10-31T22:18:37.812Z,18.20
2022-10-31T22:21:10.420Z,18.20
2022-10-31T22:23:41.025Z,18.20
2022-10-31T22:26:14.512Z,18.20
2022-10-31T22:28:48.724Z,18.20
2022-10-31T22:31:20.505Z,18.20
2022-10-31T22:33:51.308Z,18.20
2022-10-31T22:36:23.228Z,18.20
2022-10-31T22:38:53.825Z,18.20
2022-10-31T22:41:25.718Z,18.20
2022-10-31T22:43:59.509Z,18.20
2022-10-31T22:46:31.683Z,18.20
2022-10-31T22:49:03.734Z,18.20
2022-10-31T22:51:35.730Z,18.20
2022-10-31T22:54:06.345Z,18.20
2022-10-31T22:56:38.493Z,18.20
2022-10-31T22:59:13.874Z,18.20
2022-10-31T23:01:45.887Z,18.20
2022-10-31T23:04:17.143Z,18.20
2022-10-31T23:06:49.276Z,18.20
2022-10-31T23:09:19.909Z,18.20
2022-10-31T23:11:50.381Z,18.20
2022-10-31T23:14:21.373Z,18.20
2022-10-31T23:16:53.656Z,18.20
2022-10-31T23:19:26.529Z,18.20
2022-10-31T23:22:00.309Z,18.20
2022-10-31T23:24:37.861Z,18.20
2022-10-31T23:27:09.749Z,18.20
2022-10-31T23:29:46.151Z,18.20
2022-10-31T23:32:20.271Z,18.20
2022-10-31T23:34:51.776Z,18.20
2022-10-31T23:37:23.586Z,18.20
2022-10-31T23:39:54.013Z,18.20
2022-10-31T23:42:25.057Z,18.20
2022-10-31T23:44:58.620Z,18.30
2022-10-31T23:47:29.095Z,18.20
2022-10-31T23:49:59.306Z,18.30
2022-10-31T23:52:29.655Z,18.30
2022-10-31T23:55:00.384Z,18.30
2022-10-31T23:57:30.714Z,18.30
